sensor_id;sensor_type;location;lat;lon;timestamp;P1;durP1;ratioP1;P2;durP2;ratioP2
13147;SDS011;6639;50.956;4.242;2022-09-29T00:00:41;6.07;;;5.57;;
13147;SDS011;6639;50.956;4.242;2022-09-29T00:03:07;5.20;;;4.80;;
13147;SDS011;6639;50.956;4.242;2022-09-29T00:05:36;5.82;;;4.88;;
13147;SDS011;6639;50.956;4.242;2022-09-29T00:08:02;5.68;;;5.07;;
13147;SDS011;6639;50.956;4.242;2022-09-29T00:10:29;8.02;;;5.38;;
13147;SDS011;6639;50.956;4.242;2022-09-29T00:12:56;6.78;;;5.57;;
13147;SDS011;6639;50.956;4.242;2022-09-29T00:15:23;7.07;;;5.82;;
13147;SDS011;6639;50.956;4.242;2022-09-29T00:17:50;7.13;;;5.30;;
13147;SDS011;6639;50.956;4.242;2022-09-29T00:20:17;6.47;;;5.68;;
13147;SDS011;6639;50.956;4.242;2022-09-29T00:22:49;7.07;;;5.32;;
13147;SDS011;6639;50.956;4.242;2022-09-29T00:25:16;6.03;;;5.30;;
13147;SDS011;6639;50.956;4.242;2022-09-29T00:27:43;8.35;;;5.10;;
13147;SDS011;6639;50.956;4.242;2022-09-29T00:30:10;5.75;;;5.18;;
13147;SDS011;6639;50.956;4.242;2022-09-29T00:32:37;8.38;;;5.30;;
13147;SDS011;6639;50.956;4.242;2022-09-29T00:35:05;6.78;;;5.13;;
13147;SDS011;6639;50.956;4.242;2022-09-29T00:37:33;6.55;;;5.40;;
13147;SDS011;6639;50.956;4.242;2022-09-29T00:40:02;4.78;;;4.28;;
13147;SDS011;6639;50.956;4.242;2022-09-29T00:42:29;6.95;;;5.15;;
13147;SDS011;6639;50.956;4.242;2022-09-29T00:47:43;5.30;;;4.78;;
13147;SDS011;6639;50.956;4.242;2022-09-29T00:50:13;6.32;;;5.68;;
13147;SDS011;6639;50.956;4.242;2022-09-29T00:52:46;5.97;;;4.95;;
13147;SDS011;6639;50.956;4.242;2022-09-29T00:55:21;5.85;;;5.35;;
13147;SDS011;6639;50.956;4.242;2022-09-29T00:57:52;8.32;;;4.95;;
13147;SDS011;6639;50.956;4.242;2022-09-29T01:00:23;6.03;;;5.40;;
13147;SDS011;6639;50.956;4.242;2022-09-29T01:02:51;6.38;;;5.53;;
13147;SDS011;6639;50.956;4.242;2022-09-29T01:05:23;5.97;;;5.13;;
13147;SDS011;6639;50.956;4.242;2022-09-29T01:07:52;6.95;;;5.20;;
13147;SDS011;6639;50.956;4.242;2022-09-29T01:10:20;5.15;;;4.65;;
13147;SDS011;6639;50.956;4.242;2022-09-29T01:12:48;7.50;;;5.03;;
13147;SDS011;6639;50.956;4.242;2022-09-29T01:15:16;8.38;;;5.40;;
13147;SDS011;6639;50.956;4.242;2022-09-29T01:17:46;5.45;;;4.95;;
13147;SDS011;6639;50.956;4.242;2022-09-29T01:20:14;5.28;;;4.78;;
13147;SDS011;6639;50.956;4.242;2022-09-29T01:23:02;5.43;;;4.93;;
13147;SDS011;6639;50.956;4.242;2022-09-29T01:26:12;5.55;;;5.03;;
13147;SDS011;6639;50.956;4.242;2022-09-29T01:29:11;6.72;;;5.28;;
13147;SDS011;6639;50.956;4.242;2022-09-29T01:31:57;6.18;;;4.80;;
13147;SDS011;6639;50.956;4.242;2022-09-29T01:34:32;6.22;;;4.90;;
13147;SDS011;6639;50.956;4.242;2022-09-29T01:37:08;6.05;;;5.40;;
13147;SDS011;6639;50.956;4.242;2022-09-29T01:39:46;6.55;;;5.47;;
13147;SDS011;6639;50.956;4.242;2022-09-29T01:42:21;5.65;;;5.15;;
13147;SDS011;6639;50.956;4.242;2022-09-29T01:44:53;7.32;;;5.82;;
13147;SDS011;6639;50.956;4.242;2022-09-29T01:47:26;7.05;;;5.55;;
13147;SDS011;6639;50.956;4.242;2022-09-29T01:49:59;6.47;;;5.88;;
13147;SDS011;6639;50.956;4.242;2022-09-29T01:52:30;6.28;;;5.43;;
13147;SDS011;6639;50.956;4.242;2022-09-29T01:55:00;6.47;;;5.53;;
13147;SDS011;6639;50.956;4.242;2022-09-29T01:57:31;6.85;;;5.38;;
13147;SDS011;6639;50.956;4.242;2022-09-29T02:00:03;5.93;;;5.32;;
13147;SDS011;6639;50.956;4.242;2022-09-29T02:02:36;7.20;;;5.57;;
13147;SDS011;6639;50.956;4.242;2022-09-29T02:05:09;8.18;;;5.75;;
13147;SDS011;6639;50.956;4.242;2022-09-29T02:07:42;6.80;;;4.85;;
13147;SDS011;6639;50.956;4.242;2022-09-29T02:10:11;5.78;;;5.20;;
13147;SDS011;6639;50.956;4.242;2022-09-29T02:12:43;6.57;;;5.47;;
13147;SDS011;6639;50.956;4.242;2022-09-29T02:15:11;5.72;;;5.22;;
13147;SDS011;6639;50.956;4.242;2022-09-29T02:17:44;6.13;;;5.53;;
13147;SDS011;6639;50.956;4.242;2022-09-29T02:20:15;5.85;;;5.25;;
13147;SDS011;6639;50.956;4.242;2022-09-29T02:22:42;8.93;;;5.55;;
13147;SDS011;6639;50.956;4.242;2022-09-29T02:25:10;6.68;;;6.05;;
13147;SDS011;6639;50.956;4.242;2022-09-29T02:27:40;6.38;;;5.20;;
13147;SDS011;6639;50.956;4.242;2022-09-29T02:30:07;5.90;;;5.30;;
13147;SDS011;6639;50.956;4.242;2022-09-29T02:32:36;6.22;;;5.63;;
13147;SDS011;6639;50.956;4.242;2022-09-29T02:35:05;6.50;;;5.90;;
13147;SDS011;6639;50.956;4.242;2022-09-29T02:37:40;7.43;;;5.30;;
13147;SDS011;6639;50.956;4.242;2022-09-29T02:40:31;6.82;;;5.55;;
13147;SDS011;6639;50.956;4.242;2022-09-29T02:46:06;8.15;;;6.35;;
13147;SDS011;6639;50.956;4.242;2022-09-29T02:48:51;7.97;;;5.97;;
13147;SDS011;6639;50.956;4.242;2022-09-29T02:51:33;7.45;;;5.45;;
13147;SDS011;6639;50.956;4.242;2022-09-29T02:54:06;8.18;;;6.28;;
13147;SDS011;6639;50.956;4.242;2022-09-29T02:56:54;8.60;;;6.20;;
13147;SDS011;6639;50.956;4.242;2022-09-29T02:59:29;7.00;;;6.30;;
13147;SDS011;6639;50.956;4.242;2022-09-29T03:02:00;7.10;;;6.05;;
13147;SDS011;6639;50.956;4.242;2022-09-29T03:04:27;7.32;;;6.32;;
13147;SDS011;6639;50.956;4.242;2022-09-29T03:06:56;6.07;;;5.50;;
13147;SDS011;6639;50.956;4.242;2022-09-29T03:09:23;6.45;;;5.50;;
13147;SDS011;6639;50.956;4.242;2022-09-29T03:11:51;8.45;;;6.25;;
13147;SDS011;6639;50.956;4.242;2022-09-29T03:14:17;8.80;;;5.93;;
13147;SDS011;6639;50.956;4.242;2022-09-29T03:16:44;8.98;;;6.82;;
13147;SDS011;6639;50.956;4.242;2022-09-29T03:19:11;6.72;;;6.13;;
13147;SDS011;6639;50.956;4.242;2022-09-29T03:21:38;8.00;;;6.88;;
13147;SDS011;6639;50.956;4.242;2022-09-29T03:24:06;8.77;;;6.63;;
13147;SDS011;6639;50.956;4.242;2022-09-29T03:26:33;7.75;;;6.22;;
13147;SDS011;6639;50.956;4.242;2022-09-29T03:29:00;7.53;;;6.15;;
13147;SDS011;6639;50.956;4.242;2022-09-29T03:31:27;7.22;;;6.50;;
13147;SDS011;6639;50.956;4.242;2022-09-29T03:33:53;7.50;;;6.45;;
13147;SDS011;6639;50.956;4.242;2022-09-29T03:36:20;8.20;;;6.85;;
13147;SDS011;6639;50.956;4.242;2022-09-29T03:38:47;9.18;;;6.15;;
13147;SDS011;6639;50.956;4.242;2022-09-29T03:41:15;6.80;;;6.10;;
13147;SDS011;6639;50.956;4.242;2022-09-29T03:43:42;8.52;;;6.43;;
13147;SDS011;6639;50.956;4.242;2022-09-29T03:46:09;7.20;;;6.25;;
13147;SDS011;6639;50.956;4.242;2022-09-29T03:48:36;7.13;;;6.43;;
13147;SDS011;6639;50.956;4.242;2022-09-29T03:51:03;8.48;;;6.60;;
13147;SDS011;6639;50.956;4.242;2022-09-29T03:53:32;6.28;;;5.70;;
13147;SDS011;6639;50.956;4.242;2022-09-29T03:55:59;7.63;;;6.60;;
13147;SDS011;6639;50.956;4.242;2022-09-29T03:58:27;6.82;;;6.13;;
13147;SDS011;6639;50.956;4.242;2022-09-29T04:00:54;6.65;;;5.97;;
13147;SDS011;6639;50.956;4.242;2022-09-29T04:03:21;6.53;;;5.80;;
13147;SDS011;6639;50.956;4.242;2022-09-29T04:05:48;8.43;;;6.70;;
13147;SDS011;6639;50.956;4.242;2022-09-29T04:08:15;6.82;;;6.13;;
13147;SDS011;6639;50.956;4.242;2022-09-29T04:10:42;8.77;;;6.40;;
13147;SDS011;6639;50.956;4.242;2022-09-29T04:13:11;9.23;;;6.25;;
13147;SDS011;6639;50.956;4.242;2022-09-29T04:15:40;6.20;;;5.63;;
13147;SDS011;6639;50.956;4.242;2022-09-29T04:18:07;6.63;;;6.00;;
13147;SDS011;6639;50.956;4.242;2022-09-29T04:20:34;8.25;;;6.07;;
13147;SDS011;6639;50.956;4.242;2022-09-29T04:23:02;6.18;;;5.40;;
13147;SDS011;6639;50.956;4.242;2022-09-29T04:25:29;10.85;;;6.32;;
13147;SDS011;6639;50.956;4.242;2022-09-29T04:27:56;7.80;;;5.65;;
13147;SDS011;6639;50.956;4.242;2022-09-29T04:30:23;6.45;;;5.80;;
13147;SDS011;6639;50.956;4.242;2022-09-29T04:32:51;6.85;;;6.13;;
13147;SDS011;6639;50.956;4.242;2022-09-29T04:35:18;8.65;;;6.68;;
13147;SDS011;6639;50.956;4.242;2022-09-29T04:37:44;9.02;;;6.03;;
13147;SDS011;6639;50.956;4.242;2022-09-29T04:40:11;6.57;;;5.97;;
13147;SDS011;6639;50.956;4.242;2022-09-29T04:42:38;8.95;;;6.68;;
13147;SDS011;6639;50.956;4.242;2022-09-29T04:45:05;7.03;;;5.75;;
13147;SDS011;6639;50.956;4.242;2022-09-29T04:47:32;7.75;;;6.65;;
13147;SDS011;6639;50.956;4.242;2022-09-29T04:50:01;10.52;;;6.55;;
13147;SDS011;6639;50.956;4.242;2022-09-29T04:52:27;6.85;;;6.05;;
13147;SDS011;6639;50.956;4.242;2022-09-29T04:54:54;7.03;;;6.32;;
13147;SDS011;6639;50.956;4.242;2022-09-29T04:57:21;11.63;;;6.15;;
13147;SDS011;6639;50.956;4.242;2022-09-29T04:59:48;7.25;;;6.22;;
13147;SDS011;6639;50.956;4.242;2022-09-29T05:02:16;8.63;;;5.97;;
13147;SDS011;6639;50.956;4.242;2022-09-29T05:04:43;11.77;;;6.95;;
13147;SDS011;6639;50.956;4.242;2022-09-29T05:07:13;6.90;;;5.90;;
13147;SDS011;6639;50.956;4.242;2022-09-29T05:09:40;7.18;;;6.47;;
13147;SDS011;6639;50.956;4.242;2022-09-29T05:12:07;6.70;;;6.03;;
13147;SDS011;6639;50.956;4.242;2022-09-29T05:14:35;9.15;;;6.43;;
13147;SDS011;6639;50.956;4.242;2022-09-29T05:17:01;7.15;;;6.00;;
13147;SDS011;6639;50.956;4.242;2022-09-29T05:19:28;8.82;;;6.20;;
13147;SDS011;6639;50.956;4.242;2022-09-29T05:21:56;9.93;;;6.35;;
13147;SDS011;6639;50.956;4.242;2022-09-29T05:24:24;7.20;;;6.13;;
13147;SDS011;6639;50.956;4.242;2022-09-29T05:26:51;9.95;;;5.93;;
13147;SDS011;6639;50.956;4.242;2022-09-29T05:29:18;7.40;;;6.10;;
13147;SDS011;6639;50.956;4.242;2022-09-29T05:31:47;8.05;;;6.38;;
13147;SDS011;6639;50.956;4.242;2022-09-29T05:34:14;8.93;;;5.75;;
13147;SDS011;6639;50.956;4.242;2022-09-29T05:36:41;7.30;;;6.55;;
13147;SDS011;6639;50.956;4.242;2022-09-29T05:39:08;8.25;;;6.97;;
13147;SDS011;6639;50.956;4.242;2022-09-29T05:41:36;8.13;;;6.47;;
13147;SDS011;6639;50.956;4.242;2022-09-29T05:44:03;10.82;;;6.15;;
13147;SDS011;6639;50.956;4.242;2022-09-29T05:46:30;9.60;;;6.40;;
13147;SDS011;6639;50.956;4.242;2022-09-29T05:48:57;7.38;;;5.85;;
13147;SDS011;6639;50.956;4.242;2022-09-29T05:51:24;9.23;;;7.18;;
13147;SDS011;6639;50.956;4.242;2022-09-29T05:53:51;8.70;;;6.35;;
13147;SDS011;6639;50.956;4.242;2022-09-29T05:56:19;8.38;;;6.30;;
13147;SDS011;6639;50.956;4.242;2022-09-29T05:58:49;8.23;;;6.30;;
13147;SDS011;6639;50.956;4.242;2022-09-29T06:01:17;8.70;;;6.40;;
13147;SDS011;6639;50.956;4.242;2022-09-29T06:03:45;8.52;;;6.78;;
13147;SDS011;6639;50.956;4.242;2022-09-29T06:06:13;6.55;;;5.93;;
13147;SDS011;6639;50.956;4.242;2022-09-29T06:08:41;7.05;;;6.25;;
13147;SDS011;6639;50.956;4.242;2022-09-29T06:11:10;7.90;;;6.53;;
13147;SDS011;6639;50.956;4.242;2022-09-29T06:13:40;8.23;;;6.30;;
13147;SDS011;6639;50.956;4.242;2022-09-29T06:16:09;7.32;;;6.38;;
13147;SDS011;6639;50.956;4.242;2022-09-29T06:18:37;8.70;;;5.88;;
13147;SDS011;6639;50.956;4.242;2022-09-29T06:21:05;7.75;;;6.15;;
13147;SDS011;6639;50.956;4.242;2022-09-29T06:23:33;8.48;;;5.80;;
13147;SDS011;6639;50.956;4.242;2022-09-29T06:26:01;8.20;;;5.75;;
13147;SDS011;6639;50.956;4.242;2022-09-29T06:28:30;10.48;;;5.68;;
13147;SDS011;6639;50.956;4.242;2022-09-29T06:30:58;7.57;;;5.25;;
13147;SDS011;6639;50.956;4.242;2022-09-29T06:33:27;6.35;;;5.38;;
13147;SDS011;6639;50.956;4.242;2022-09-29T06:35:55;7.82;;;5.35;;
13147;SDS011;6639;50.956;4.242;2022-09-29T06:38:39;8.05;;;5.38;;
13147;SDS011;6639;50.956;4.242;2022-09-29T06:41:07;8.63;;;5.97;;
13147;SDS011;6639;50.956;4.242;2022-09-29T06:43:34;8.20;;;5.43;;
13147;SDS011;6639;50.956;4.242;2022-09-29T06:46:02;6.47;;;5.40;;
13147;SDS011;6639;50.956;4.242;2022-09-29T06:48:31;9.43;;;5.38;;
13147;SDS011;6639;50.956;4.242;2022-09-29T06:50:57;7.90;;;5.07;;
13147;SDS011;6639;50.956;4.242;2022-09-29T06:53:24;10.35;;;5.85;;
13147;SDS011;6639;50.956;4.242;2022-09-29T06:55:51;6.82;;;5.47;;
13147;SDS011;6639;50.956;4.242;2022-09-29T06:58:18;10.65;;;5.88;;
13147;SDS011;6639;50.956;4.242;2022-09-29T07:00:45;8.50;;;5.88;;
13147;SDS011;6639;50.956;4.242;2022-09-29T07:03:12;8.13;;;5.68;;
13147;SDS011;6639;50.956;4.242;2022-09-29T07:05:40;9.75;;;5.35;;
13147;SDS011;6639;50.956;4.242;2022-09-29T07:08:08;7.43;;;5.82;;
13147;SDS011;6639;50.956;4.242;2022-09-29T07:10:36;7.15;;;5.47;;
13147;SDS011;6639;50.956;4.242;2022-09-29T07:13:03;8.82;;;5.65;;
13147;SDS011;6639;50.956;4.242;2022-09-29T07:15:32;11.43;;;5.45;;
13147;SDS011;6639;50.956;4.242;2022-09-29T07:17:59;6.32;;;5.00;;
13147;SDS011;6639;50.956;4.242;2022-09-29T07:20:27;5.57;;;4.35;;
13147;SDS011;6639;50.956;4.242;2022-09-29T07:22:56;7.13;;;5.75;;
13147;SDS011;6639;50.956;4.242;2022-09-29T07:25:24;8.38;;;4.90;;
13147;SDS011;6639;50.956;4.242;2022-09-29T07:27:50;6.80;;;5.40;;
13147;SDS011;6639;50.956;4.242;2022-09-29T07:30:17;8.23;;;5.00;;
13147;SDS011;6639;50.956;4.242;2022-09-29T07:32:44;4.95;;;4.47;;
13147;SDS011;6639;50.956;4.242;2022-09-29T07:35:11;5.22;;;4.55;;
13147;SDS011;6639;50.956;4.242;2022-09-29T07:37:38;6.78;;;5.00;;
13147;SDS011;6639;50.956;4.242;2022-09-29T07:40:06;5.03;;;4.53;;
13147;SDS011;6639;50.956;4.242;2022-09-29T07:42:34;6.10;;;4.78;;
13147;SDS011;6639;50.956;4.242;2022-09-29T07:45:01;5.35;;;4.57;;
13147;SDS011;6639;50.956;4.242;2022-09-29T07:47:27;7.93;;;5.93;;
13147;SDS011;6639;50.956;4.242;2022-09-29T07:49:55;6.55;;;4.60;;
13147;SDS011;6639;50.956;4.242;2022-09-29T07:52:22;5.55;;;4.10;;
13147;SDS011;6639;50.956;4.242;2022-09-29T07:54:49;4.82;;;4.32;;
13147;SDS011;6639;50.956;4.242;2022-09-29T07:57:17;5.78;;;4.68;;
13147;SDS011;6639;50.956;4.242;2022-09-29T07:59:44;5.47;;;4.15;;
13147;SDS011;6639;50.956;4.242;2022-09-29T08:02:10;6.18;;;4.22;;
13147;SDS011;6639;50.956;4.242;2022-09-29T08:04:37;4.40;;;4.00;;
13147;SDS011;6639;50.956;4.242;2022-09-29T08:07:04;4.60;;;4.20;;
13147;SDS011;6639;50.956;4.242;2022-09-29T08:09:32;4.50;;;3.72;;
13147;SDS011;6639;50.956;4.242;2022-09-29T08:11:59;5.03;;;4.53;;
13147;SDS011;6639;50.956;4.242;2022-09-29T08:14:27;4.28;;;3.67;;
13147;SDS011;6639;50.956;4.242;2022-09-29T08:16:54;4.28;;;3.88;;
13147;SDS011;6639;50.956;4.242;2022-09-29T08:19:21;5.43;;;4.15;;
13147;SDS011;6639;50.956;4.242;2022-09-29T08:21:48;5.38;;;4.88;;
13147;SDS011;6639;50.956;4.242;2022-09-29T08:24:15;7.75;;;4.13;;
13147;SDS011;6639;50.956;4.242;2022-09-29T08:26:42;4.72;;;4.32;;
13147;SDS011;6639;50.956;4.242;2022-09-29T08:29:10;4.43;;;3.92;;
13147;SDS011;6639;50.956;4.242;2022-09-29T08:31:38;4.45;;;4.00;;
13147;SDS011;6639;50.956;4.242;2022-09-29T08:34:07;4.38;;;3.97;;
13147;SDS011;6639;50.956;4.242;2022-09-29T08:36:34;3.75;;;3.40;;
13147;SDS011;6639;50.956;4.242;2022-09-29T08:39:01;4.30;;;3.90;;
13147;SDS011;6639;50.956;4.242;2022-09-29T08:41:31;5.13;;;3.50;;
13147;SDS011;6639;50.956;4.242;2022-09-29T08:44:06;6.28;;;3.63;;
13147;SDS011;6639;50.956;4.242;2022-09-29T08:46:41;4.38;;;3.97;;
13147;SDS011;6639;50.956;4.242;2022-09-29T08:49:13;4.25;;;3.67;;
13147;SDS011;6639;50.956;4.242;2022-09-29T08:51:44;3.72;;;3.42;;
13147;SDS011;6639;50.956;4.242;2022-09-29T08:54:18;3.90;;;3.15;;
13147;SDS011;6639;50.956;4.242;2022-09-29T08:56:52;4.68;;;3.50;;
13147;SDS011;6639;50.956;4.242;2022-09-29T08:59:19;3.20;;;2.90;;
13147;SDS011;6639;50.956;4.242;2022-09-29T09:01:53;3.70;;;3.03;;
13147;SDS011;6639;50.956;4.242;2022-09-29T09:07:32;3.30;;;3.00;;
13147;SDS011;6639;50.956;4.242;2022-09-29T09:10:09;3.35;;;2.80;;
13147;SDS011;6639;50.956;4.242;2022-09-29T09:12:53;2.97;;;2.78;;
13147;SDS011;6639;50.956;4.242;2022-09-29T09:15:40;3.85;;;2.95;;
13147;SDS011;6639;50.956;4.242;2022-09-29T09:18:50;4.50;;;3.00;;
13147;SDS011;6639;50.956;4.242;2022-09-29T09:21:36;2.50;;;2.40;;
13147;SDS011;6639;50.956;4.242;2022-09-29T09:24:09;3.15;;;2.85;;
13147;SDS011;6639;50.956;4.242;2022-09-29T09:26:47;3.83;;;3.22;;
13147;SDS011;6639;50.956;4.242;2022-09-29T09:29:16;2.75;;;2.55;;
13147;SDS011;6639;50.956;4.242;2022-09-29T09:31:48;3.17;;;2.90;;
13147;SDS011;6639;50.956;4.242;2022-09-29T09:34:24;3.22;;;2.92;;
13147;SDS011;6639;50.956;4.242;2022-09-29T09:36:55;2.88;;;2.67;;
13147;SDS011;6639;50.956;4.242;2022-09-29T09:39:26;3.92;;;2.80;;
13147;SDS011;6639;50.956;4.242;2022-09-29T09:41:56;4.07;;;3.30;;
13147;SDS011;6639;50.956;4.242;2022-09-29T09:44:26;3.30;;;2.78;;
13147;SDS011;6639;50.956;4.242;2022-09-29T09:46:59;2.80;;;2.10;;
13147;SDS011;6639;50.956;4.242;2022-09-29T09:49:31;2.55;;;2.35;;
13147;SDS011;6639;50.956;4.242;2022-09-29T09:52:07;2.35;;;2.00;;
13147;SDS011;6639;50.956;4.242;2022-09-29T09:54:38;2.63;;;1.98;;
13147;SDS011;6639;50.956;4.242;2022-09-29T09:57:22;1.70;;;1.60;;
13147;SDS011;6639;50.956;4.242;2022-09-29T10:00:05;2.15;;;1.58;;
13147;SDS011;6639;50.956;4.242;2022-09-29T10:02:37;1.50;;;1.40;;
13147;SDS011;6639;50.956;4.242;2022-09-29T10:05:11;1.40;;;1.30;;
13147;SDS011;6639;50.956;4.242;2022-09-29T10:07:40;1.58;;;1.48;;
13147;SDS011;6639;50.956;4.242;2022-09-29T10:10:14;1.55;;;1.45;;
13147;SDS011;6639;50.956;4.242;2022-09-29T10:12:43;1.60;;;1.50;;
13147;SDS011;6639;50.956;4.242;2022-09-29T10:15:16;1.50;;;1.40;;
13147;SDS011;6639;50.956;4.242;2022-09-29T10:17:48;1.50;;;1.40;;
13147;SDS011;6639;50.956;4.242;2022-09-29T10:20:30;1.40;;;1.30;;
13147;SDS011;6639;50.956;4.242;2022-09-29T10:23:17;2.55;;;1.42;;
13147;SDS011;6639;50.956;4.242;2022-09-29T10:25:50;1.95;;;1.58;;
13147;SDS011;6639;50.956;4.242;2022-09-29T10:28:19;1.50;;;1.20;;
13147;SDS011;6639;50.956;4.242;2022-09-29T10:30:47;3.40;;;1.20;;
13147;SDS011;6639;50.956;4.242;2022-09-29T10:33:16;1.30;;;1.20;;
13147;SDS011;6639;50.956;4.242;2022-09-29T10:35:46;1.30;;;1.20;;
13147;SDS011;6639;50.956;4.242;2022-09-29T10:38:17;1.77;;;1.40;;
13147;SDS011;6639;50.956;4.242;2022-09-29T10:40:55;1.20;;;1.10;;
13147;SDS011;6639;50.956;4.242;2022-09-29T10:43:24;1.10;;;1.10;;
13147;SDS011;6639;50.956;4.242;2022-09-29T10:45:52;1.40;;;0.90;;
13147;SDS011;6639;50.956;4.242;2022-09-29T10:48:22;1.20;;;1.10;;
13147;SDS011;6639;50.956;4.242;2022-09-29T10:50:52;1.33;;;1.00;;
13147;SDS011;6639;50.956;4.242;2022-09-29T10:53:23;0.80;;;0.80;;
13147;SDS011;6639;50.956;4.242;2022-09-29T10:55:56;2.25;;;1.10;;
13147;SDS011;6639;50.956;4.242;2022-09-29T10:58:27;1.30;;;1.10;;
13147;SDS011;6639;50.956;4.242;2022-09-29T11:01:03;0.93;;;0.93;;
13147;SDS011;6639;50.956;4.242;2022-09-29T11:03:32;1.65;;;1.33;;
13147;SDS011;6639;50.956;4.242;2022-09-29T11:06:04;1.48;;;1.38;;
13147;SDS011;6639;50.956;4.242;2022-09-29T11:08:33;2.72;;;1.10;;
13147;SDS011;6639;50.956;4.242;2022-09-29T11:11:26;1.10;;;1.00;;
13147;SDS011;6639;50.956;4.242;2022-09-29T11:13:55;1.02;;;1.00;;
13147;SDS011;6639;50.956;4.242;2022-09-29T11:16:25;1.05;;;0.85;;
13147;SDS011;6639;50.956;4.242;2022-09-29T11:18:55;1.30;;;0.85;;
13147;SDS011;6639;50.956;4.242;2022-09-29T11:24:38;1.60;;;0.88;;
13147;SDS011;6639;50.956;4.242;2022-09-29T11:27:19;0.80;;;0.80;;
13147;SDS011;6639;50.956;4.242;2022-09-29T11:29:57;1.20;;;1.10;;
13147;SDS011;6639;50.956;4.242;2022-09-29T11:32:37;2.08;;;1.30;;
13147;SDS011;6639;50.956;4.242;2022-09-29T11:35:17;0.95;;;0.80;;
13147;SDS011;6639;50.956;4.242;2022-09-29T11:38:07;1.13;;;0.98;;
13147;SDS011;6639;50.956;4.242;2022-09-29T11:40:56;1.67;;;0.85;;
13147;SDS011;6639;50.956;4.242;2022-09-29T11:43:40;1.27;;;1.02;;
13147;SDS011;6639;50.956;4.242;2022-09-29T11:46:15;2.15;;;1.08;;
13147;SDS011;6639;50.956;4.242;2022-09-29T11:48:55;0.82;;;0.70;;
13147;SDS011;6639;50.956;4.242;2022-09-29T11:51:44;6.45;;;0.80;;
13147;SDS011;6639;50.956;4.242;2022-09-29T11:54:31;1.65;;;0.80;;
13147;SDS011;6639;50.956;4.242;2022-09-29T11:57:10;1.75;;;0.98;;
13147;SDS011;6639;50.956;4.242;2022-09-29T11:59:50;1.48;;;0.60;;
13147;SDS011;6639;50.956;4.242;2022-09-29T12:02:41;1.02;;;0.63;;
13147;SDS011;6639;50.956;4.242;2022-09-29T12:05:33;1.35;;;0.90;;
13147;SDS011;6639;50.956;4.242;2022-09-29T12:08:09;1.02;;;0.93;;
13147;SDS011;6639;50.956;4.242;2022-09-29T12:10:48;2.92;;;1.20;;
13147;SDS011;6639;50.956;4.242;2022-09-29T12:13:24;1.27;;;0.85;;
13147;SDS011;6639;50.956;4.242;2022-09-29T12:16:02;1.05;;;0.80;;
13147;SDS011;6639;50.956;4.242;2022-09-29T12:18:36;2.15;;;0.90;;
13147;SDS011;6639;50.956;4.242;2022-09-29T12:21:07;0.60;;;0.60;;
13147;SDS011;6639;50.956;4.242;2022-09-29T12:23:37;0.82;;;0.82;;
13147;SDS011;6639;50.956;4.242;2022-09-29T12:26:08;0.80;;;0.80;;
13147;SDS011;6639;50.956;4.242;2022-09-29T12:28:39;0.77;;;0.77;;
13147;SDS011;6639;50.956;4.242;2022-09-29T12:31:10;3.40;;;1.02;;
13147;SDS011;6639;50.956;4.242;2022-09-29T12:33:40;4.05;;;1.00;;
13147;SDS011;6639;50.956;4.242;2022-09-29T12:39:12;1.38;;;0.68;;
13147;SDS011;6639;50.956;4.242;2022-09-29T12:41:50;1.55;;;0.80;;
13147;SDS011;6639;50.956;4.242;2022-09-29T12:44:21;1.58;;;0.80;;
13147;SDS011;6639;50.956;4.242;2022-09-29T12:46:53;1.20;;;1.00;;
13147;SDS011;6639;50.956;4.242;2022-09-29T12:49:28;0.70;;;0.70;;
13147;SDS011;6639;50.956;4.242;2022-09-29T12:51:59;1.17;;;0.65;;
13147;SDS011;6639;50.956;4.242;2022-09-29T12:54:30;1.02;;;0.68;;
13147;SDS011;6639;50.956;4.242;2022-09-29T12:57:02;1.40;;;0.70;;
13147;SDS011;6639;50.956;4.242;2022-09-29T12:59:33;2.13;;;0.90;;
13147;SDS011;6639;50.956;4.242;2022-09-29T13:02:04;0.70;;;0.70;;
13147;SDS011;6639;50.956;4.242;2022-09-29T13:04:58;0.70;;;0.65;;
13147;SDS011;6639;50.956;4.242;2022-09-29T13:13:40;2.28;;;0.88;;
13147;SDS011;6639;50.956;4.242;2022-09-29T13:16:40;1.95;;;1.00;;
13147;SDS011;6639;50.956;4.242;2022-09-29T13:25:21;1.50;;;0.90;;
13147;SDS011;6639;50.956;4.242;2022-09-29T13:27:55;1.25;;;1.10;;
13147;SDS011;6639;50.956;4.242;2022-09-29T13:30:24;1.45;;;0.80;;
13147;SDS011;6639;50.956;4.242;2022-09-29T13:32:54;0.82;;;0.82;;
13147;SDS011;6639;50.956;4.242;2022-09-29T13:35:26;0.60;;;0.57;;
13147;SDS011;6639;50.956;4.242;2022-09-29T13:37:54;2.80;;;0.98;;
13147;SDS011;6639;50.956;4.242;2022-09-29T13:40:30;1.92;;;0.82;;
13147;SDS011;6639;50.956;4.242;2022-09-29T13:42:58;0.75;;;0.73;;
13147;SDS011;6639;50.956;4.242;2022-09-29T13:45:40;1.08;;;1.00;;
13147;SDS011;6639;50.956;4.242;2022-09-29T13:54:22;2.25;;;1.17;;
13147;SDS011;6639;50.956;4.242;2022-09-29T13:57:03;0.70;;;0.70;;
13147;SDS011;6639;50.956;4.242;2022-09-29T13:59:44;3.20;;;1.20;;
13147;SDS011;6639;50.956;4.242;2022-09-29T14:02:29;3.85;;;1.15;;
13147;SDS011;6639;50.956;4.242;2022-09-29T14:05:00;1.70;;;1.13;;
13147;SDS011;6639;50.956;4.242;2022-09-29T14:07:34;1.02;;;1.00;;
13147;SDS011;6639;50.956;4.242;2022-09-29T14:10:05;1.20;;;1.00;;
13147;SDS011;6639;50.956;4.242;2022-09-29T14:12:43;1.33;;;1.13;;
13147;SDS011;6639;50.956;4.242;2022-09-29T14:15:11;1.13;;;1.02;;
13147;SDS011;6639;50.956;4.242;2022-09-29T14:17:43;3.42;;;1.60;;
13147;SDS011;6639;50.956;4.242;2022-09-29T14:20:16;2.03;;;1.75;;
13147;SDS011;6639;50.956;4.242;2022-09-29T14:22:59;3.13;;;1.70;;
13147;SDS011;6639;50.956;4.242;2022-09-29T14:31:16;2.05;;;1.63;;
13147;SDS011;6639;50.956;4.242;2022-09-29T14:33:48;2.50;;;1.90;;
13147;SDS011;6639;50.956;4.242;2022-09-29T14:36:17;4.72;;;1.90;;
13147;SDS011;6639;50.956;4.242;2022-09-29T14:38:47;4.93;;;1.58;;
13147;SDS011;6639;50.956;4.242;2022-09-29T14:41:22;5.38;;;1.90;;
13147;SDS011;6639;50.956;4.242;2022-09-29T14:43:52;2.63;;;1.52;;
13147;SDS011;6639;50.956;4.242;2022-09-29T14:53:10;6.47;;;2.05;;
13147;SDS011;6639;50.956;4.242;2022-09-29T14:55:51;1.63;;;1.50;;
13147;SDS011;6639;50.956;4.242;2022-09-29T14:58:31;2.47;;;1.85;;
13147;SDS011;6639;50.956;4.242;2022-09-29T15:01:09;1.83;;;1.50;;
13147;SDS011;6639;50.956;4.242;2022-09-29T15:03:43;3.40;;;2.03;;
13147;SDS011;6639;50.956;4.242;2022-09-29T15:06:13;3.75;;;1.70;;
13147;SDS011;6639;50.956;4.242;2022-09-29T15:08:44;4.40;;;1.73;;
13147;SDS011;6639;50.956;4.242;2022-09-29T15:11:26;3.20;;;1.40;;
13147;SDS011;6639;50.956;4.242;2022-09-29T15:13:56;2.22;;;1.50;;
13147;SDS011;6639;50.956;4.242;2022-09-29T15:16:33;3.90;;;1.45;;
13147;SDS011;6639;50.956;4.242;2022-09-29T15:19:17;2.70;;;1.50;;
13147;SDS011;6639;50.956;4.242;2022-09-29T15:22:23;2.60;;;1.70;;
13147;SDS011;6639;50.956;4.242;2022-09-29T15:25:06;1.65;;;1.33;;
13147;SDS011;6639;50.956;4.242;2022-09-29T15:27:44;3.40;;;1.23;;
13147;SDS011;6639;50.956;4.242;2022-09-29T15:30:16;1.35;;;1.00;;
13147;SDS011;6639;50.956;4.242;2022-09-29T15:32:45;1.50;;;1.05;;
13147;SDS011;6639;50.956;4.242;2022-09-29T15:35:14;3.42;;;1.00;;
13147;SDS011;6639;50.956;4.242;2022-09-29T15:37:57;2.60;;;1.27;;
13147;SDS011;6639;50.956;4.242;2022-09-29T15:40:40;2.10;;;1.17;;
13147;SDS011;6639;50.956;4.242;2022-09-29T15:43:19;1.00;;;0.90;;
13147;SDS011;6639;50.956;4.242;2022-09-29T15:45:54;0.98;;;0.93;;
13147;SDS011;6639;50.956;4.242;2022-09-29T15:48:26;1.48;;;1.10;;
13147;SDS011;6639;50.956;4.242;2022-09-29T15:50:55;1.30;;;1.20;;
13147;SDS011;6639;50.956;4.242;2022-09-29T15:53:24;1.25;;;1.15;;
13147;SDS011;6639;50.956;4.242;2022-09-29T15:55:52;1.77;;;0.90;;
13147;SDS011;6639;50.956;4.242;2022-09-29T15:58:40;0.95;;;0.90;;
13147;SDS011;6639;50.956;4.242;2022-09-29T16:01:10;1.95;;;0.65;;
13147;SDS011;6639;50.956;4.242;2022-09-29T16:03:39;1.77;;;1.00;;
13147;SDS011;6639;50.956;4.242;2022-09-29T16:06:16;1.95;;;1.33;;
13147;SDS011;6639;50.956;4.242;2022-09-29T16:08:53;1.45;;;1.05;;
13147;SDS011;6639;50.956;4.242;2022-09-29T16:11:23;1.35;;;0.70;;
13147;SDS011;6639;50.956;4.242;2022-09-29T16:13:53;2.53;;;0.80;;